Pagrindinis puslapis
METAR-TAF:

METAR-TAF

Oro uostai :

Medina, Saudo Arabija

platuma: 24-33N, ilguma: 039-42E, Aukštis: 654 m

Dabartinis oras

Ataskaita buvo paskelbta 45 minutes, ne 04:00 UTC
Ramus vėjas
Temperatūra 17°C
Drėgmė 45%
Slėgis 1016 hPa
Matomumas 10 km arba daugiau
Mažai debesys ne aukštis 4500 ft
Išsisklaidę debesys ne aukštis 10000 ft

METAR: OEMA 300400Z 00000KT 9999 FEW045 SCT100 17/05 Q1016 NOSIG

Laikas: 07:45 (04:45 UTC)

Prognozė

Ataskaita buvo paskelbta 5 valandos ir 45 minutes, ne 23:00 UTC
Prognozė galioja nuo 30 metu 00 UTC su 31 metu 06 UTC
Vėjas 3 kt nuo kintamojo kryptimis
Matomumas: 7000 m
Tapsmas
nuo 30 metu 08 UTC su 30 metu 10 UTC
Vėjas 12 kt iš Pietvakarių
Matomumas 10 km arba daugiau
Mažai debesys ne aukštis 4500 ft
Tapsmas
nuo 30 metu 17 UTC su 30 metu 19 UTC
Vėjas 3 kt nuo kintamojo kryptimis
Išsisklaidę debesys ne aukštis 4500 ft

TAF: OEMA 292300Z 3000/3106 VRB03KT 7000 NSC BECMG 3008/3010 22012KT 9999 FEW045 BECMG 3017/3019 VRB03KT SCT045

Orai ataskaitas ir orų prognozės (METAR, TAF).

turimą stotys yra geltonos ir raudonos taškus žemėlapyje.

Perkelti pele per norėdami pamatyti stoties vardą.

Tada spustelėkite, norėdami matyti oro stebėjimo ir prognozės.

Norėdami pakeisti žemėlapį: spustelėkite ant žalios mygtukų su juodo kryžiaus žemyn,; žalią mygtuką su brūkšneliu, jei norite nutolinti; arba žalių rodyklių gretimoms žemėlapius.


METAR-TAF: